sensor_id;sensor_type;location;lat;lon;timestamp;P1;durP1;ratioP1;P2;durP2;ratioP2
77612;SDS011;66777;52.282;5.960;2023-04-02T00:01:53;24.30;;;10.52;;
77612;SDS011;66777;52.282;5.960;2023-04-02T00:04:19;21.17;;;9.52;;
77612;SDS011;66777;52.282;5.960;2023-04-02T00:06:47;22.90;;;9.68;;
77612;SDS011;66777;52.282;5.960;2023-04-02T00:09:22;23.95;;;10.63;;
77612;SDS011;66777;52.282;5.960;2023-04-02T00:11:56;24.45;;;10.20;;
77612;SDS011;66777;52.282;5.960;2023-04-02T00:16:55;21.85;;;9.27;;
77612;SDS011;66777;52.282;5.960;2023-04-02T00:22:24;20.02;;;8.75;;
77612;SDS011;66777;52.282;5.960;2023-04-02T00:24:54;17.02;;;8.45;;
77612;SDS011;66777;52.282;5.960;2023-04-02T00:27:22;19.75;;;9.63;;
77612;SDS011;66777;52.282;5.960;2023-04-02T00:29:52;20.20;;;9.10;;
77612;SDS011;66777;52.282;5.960;2023-04-02T00:32:21;19.95;;;8.90;;
77612;SDS011;66777;52.282;5.960;2023-04-02T00:34:52;23.48;;;9.80;;
77612;SDS011;66777;52.282;5.960;2023-04-02T00:37:22;23.35;;;10.73;;
77612;SDS011;66777;52.282;5.960;2023-04-02T00:40:01;21.42;;;10.23;;
77612;SDS011;66777;52.282;5.960;2023-04-02T00:42:33;25.98;;;9.60;;
77612;SDS011;66777;52.282;5.960;2023-04-02T00:45:00;21.33;;;9.43;;
77612;SDS011;66777;52.282;5.960;2023-04-02T00:47:33;23.50;;;10.35;;
77612;SDS011;66777;52.282;5.960;2023-04-02T00:52:36;21.77;;;8.73;;
77612;SDS011;66777;52.282;5.960;2023-04-02T00:55:05;19.70;;;8.82;;
77612;SDS011;66777;52.282;5.960;2023-04-02T00:57:36;22.00;;;8.73;;
77612;SDS011;66777;52.282;5.960;2023-04-02T01:00:48;21.85;;;9.57;;
77612;SDS011;66777;52.282;5.960;2023-04-02T01:04:00;23.42;;;9.43;;
77612;SDS011;66777;52.282;5.960;2023-04-02T01:06:14;20.52;;;8.63;;
77612;SDS011;66777;52.282;5.960;2023-04-02T01:11:54;18.02;;;8.63;;
77612;SDS011;66777;52.282;5.960;2023-04-02T01:17:31;16.83;;;8.55;;
77612;SDS011;66777;52.282;5.960;2023-04-02T01:26:24;21.23;;;9.10;;
77612;SDS011;66777;52.282;5.960;2023-04-02T01:29:02;23.90;;;9.82;;
77612;SDS011;66777;52.282;5.960;2023-04-02T01:31:38;19.17;;;9.23;;
77612;SDS011;66777;52.282;5.960;2023-04-02T01:34:10;20.58;;;8.88;;
77612;SDS011;66777;52.282;5.960;2023-04-02T01:42:12;21.33;;;9.90;;
77612;SDS011;66777;52.282;5.960;2023-04-02T01:45:11;21.15;;;8.13;;
77612;SDS011;66777;52.282;5.960;2023-04-02T01:47:39;22.70;;;10.07;;
77612;SDS011;66777;52.282;5.960;2023-04-02T01:50:20;25.05;;;9.73;;
77612;SDS011;66777;52.282;5.960;2023-04-02T01:52:56;22.60;;;9.27;;
77612;SDS011;66777;52.282;5.960;2023-04-02T01:55:50;21.63;;;9.20;;
77612;SDS011;66777;52.282;5.960;2023-04-02T01:58:21;19.85;;;8.30;;
77612;SDS011;66777;52.282;5.960;2023-04-02T02:03:25;17.23;;;7.60;;
77612;SDS011;66777;52.282;5.960;2023-04-02T02:05:51;19.30;;;8.02;;
77612;SDS011;66777;52.282;5.960;2023-04-02T02:09:03;17.48;;;8.48;;
77612;SDS011;66777;52.282;5.960;2023-04-02T02:11:05;17.70;;;7.90;;
77612;SDS011;66777;52.282;5.960;2023-04-02T02:13:36;15.73;;;7.32;;
77612;SDS011;66777;52.282;5.960;2023-04-02T02:16:02;17.77;;;8.15;;
77612;SDS011;66777;52.282;5.960;2023-04-02T02:18:29;16.70;;;8.30;;
77612;SDS011;66777;52.282;5.960;2023-04-02T02:20:56;21.63;;;8.35;;
77612;SDS011;66777;52.282;5.960;2023-04-02T02:23:24;16.17;;;8.10;;
77612;SDS011;66777;52.282;5.960;2023-04-02T02:25:53;17.85;;;9.30;;
77612;SDS011;66777;52.282;5.960;2023-04-02T02:28:22;22.38;;;9.25;;
77612;SDS011;66777;52.282;5.960;2023-04-02T02:33:27;19.73;;;9.00;;
77612;SDS011;66777;52.282;5.960;2023-04-02T02:36:06;16.00;;;7.07;;
77612;SDS011;66777;52.282;5.960;2023-04-02T02:44:43;18.38;;;7.80;;
77612;SDS011;66777;52.282;5.960;2023-04-02T02:47:21;17.35;;;8.13;;
77612;SDS011;66777;52.282;5.960;2023-04-02T02:49:54;18.85;;;7.82;;
77612;SDS011;66777;52.282;5.960;2023-04-02T02:52:27;19.33;;;8.38;;
77612;SDS011;66777;52.282;5.960;2023-04-02T02:57:29;18.30;;;8.10;;
77612;SDS011;66777;52.282;5.960;2023-04-02T02:59:59;18.67;;;8.02;;
77612;SDS011;66777;52.282;5.960;2023-04-02T03:02:30;18.17;;;7.32;;
77612;SDS011;66777;52.282;5.960;2023-04-02T03:05:02;18.80;;;7.50;;
77612;SDS011;66777;52.282;5.960;2023-04-02T03:07:28;18.02;;;7.78;;
77612;SDS011;66777;52.282;5.960;2023-04-02T03:12:53;17.52;;;7.50;;
77612;SDS011;66777;52.282;5.960;2023-04-02T03:18:16;16.02;;;7.72;;
77612;SDS011;66777;52.282;5.960;2023-04-02T03:20:57;19.02;;;8.32;;
77612;SDS011;66777;52.282;5.960;2023-04-02T03:23:56;16.42;;;7.32;;
77612;SDS011;66777;52.282;5.960;2023-04-02T03:26:30;17.05;;;7.38;;
77612;SDS011;66777;52.282;5.960;2023-04-02T03:29:24;15.05;;;6.72;;
77612;SDS011;66777;52.282;5.960;2023-04-02T03:34:54;19.23;;;7.50;;
77612;SDS011;66777;52.282;5.960;2023-04-02T03:37:53;14.65;;;7.13;;
77612;SDS011;66777;52.282;5.960;2023-04-02T03:40:25;13.75;;;6.05;;
77612;SDS011;66777;52.282;5.960;2023-04-02T03:43:00;13.85;;;6.25;;
77612;SDS011;66777;52.282;5.960;2023-04-02T03:45:36;15.40;;;6.80;;
77612;SDS011;66777;52.282;5.960;2023-04-02T03:48:07;16.23;;;7.07;;
77612;SDS011;66777;52.282;5.960;2023-04-02T03:50:41;16.48;;;6.05;;
77612;SDS011;66777;52.282;5.960;2023-04-02T03:53:16;16.35;;;6.15;;
77612;SDS011;66777;52.282;5.960;2023-04-02T03:55:42;15.48;;;6.00;;
77612;SDS011;66777;52.282;5.960;2023-04-02T04:01:17;10.38;;;4.25;;
77612;SDS011;66777;52.282;5.960;2023-04-02T04:04:01;11.77;;;4.22;;
77612;SDS011;66777;52.282;5.960;2023-04-02T04:06:40;10.23;;;4.68;;
77612;SDS011;66777;52.282;5.960;2023-04-02T04:09:15;8.27;;;4.15;;
77612;SDS011;66777;52.282;5.960;2023-04-02T04:11:50;9.85;;;4.60;;
77612;SDS011;66777;52.282;5.960;2023-04-02T04:14:27;10.38;;;5.18;;
77612;SDS011;66777;52.282;5.960;2023-04-02T04:22:12;10.75;;;3.92;;
77612;SDS011;66777;52.282;5.960;2023-04-02T04:24:39;10.90;;;3.78;;
77612;SDS011;66777;52.282;5.960;2023-04-02T04:30:14;10.63;;;3.60;;
77612;SDS011;66777;52.282;5.960;2023-04-02T04:33:11;10.18;;;3.67;;
77612;SDS011;66777;52.282;5.960;2023-04-02T04:36:04;7.10;;;3.13;;
77612;SDS011;66777;52.282;5.960;2023-04-02T04:38:45;7.97;;;3.47;;
77612;SDS011;66777;52.282;5.960;2023-04-02T04:41:26;7.68;;;2.80;;
77612;SDS011;66777;52.282;5.960;2023-04-02T04:43:58;9.20;;;2.55;;
77612;SDS011;66777;52.282;5.960;2023-04-02T04:46:47;7.22;;;2.97;;
77612;SDS011;66777;52.282;5.960;2023-04-02T04:49:35;9.40;;;3.10;;
77612;SDS011;66777;52.282;5.960;2023-04-02T04:52:21;9.25;;;3.00;;
77612;SDS011;66777;52.282;5.960;2023-04-02T04:54:49;6.75;;;2.38;;
77612;SDS011;66777;52.282;5.960;2023-04-02T04:57:28;7.72;;;2.80;;
77612;SDS011;66777;52.282;5.960;2023-04-02T05:02:40;6.63;;;2.53;;
77612;SDS011;66777;52.282;5.960;2023-04-02T05:05:32;7.15;;;2.72;;
77612;SDS011;66777;52.282;5.960;2023-04-02T05:08:04;8.05;;;2.55;;
77612;SDS011;66777;52.282;5.960;2023-04-02T05:10:40;8.93;;;3.00;;
77612;SDS011;66777;52.282;5.960;2023-04-02T05:18:36;7.97;;;3.17;;
77612;SDS011;66777;52.282;5.960;2023-04-02T05:21:26;7.47;;;3.00;;
77612;SDS011;66777;52.282;5.960;2023-04-02T05:29:14;8.38;;;2.65;;
77612;SDS011;66777;52.282;5.960;2023-04-02T05:32:29;8.45;;;3.15;;
77612;SDS011;66777;52.282;5.960;2023-04-02T05:34:39;8.48;;;3.10;;
77612;SDS011;66777;52.282;5.960;2023-04-02T05:37:15;7.80;;;3.63;;
77612;SDS011;66777;52.282;5.960;2023-04-02T05:39:52;10.38;;;3.78;;
77612;SDS011;66777;52.282;5.960;2023-04-02T05:42:21;8.98;;;4.53;;
77612;SDS011;66777;52.282;5.960;2023-04-02T05:45:00;8.93;;;3.83;;
77612;SDS011;66777;52.282;5.960;2023-04-02T05:47:37;13.13;;;5.20;;
77612;SDS011;66777;52.282;5.960;2023-04-02T05:52:35;9.93;;;4.07;;
77612;SDS011;66777;52.282;5.960;2023-04-02T05:57:46;9.07;;;4.47;;
77612;SDS011;66777;52.282;5.960;2023-04-02T06:00:38;12.38;;;4.50;;
77612;SDS011;66777;52.282;5.960;2023-04-02T06:03:05;13.70;;;4.75;;
77612;SDS011;66777;52.282;5.960;2023-04-02T06:05:40;10.75;;;5.00;;
77612;SDS011;66777;52.282;5.960;2023-04-02T06:08:31;9.73;;;4.13;;
77612;SDS011;66777;52.282;5.960;2023-04-02T06:11:03;10.43;;;4.80;;
77612;SDS011;66777;52.282;5.960;2023-04-02T06:13:36;11.82;;;4.55;;
77612;SDS011;66777;52.282;5.960;2023-04-02T06:16:02;12.00;;;4.95;;
77612;SDS011;66777;52.282;5.960;2023-04-02T06:18:30;11.65;;;5.25;;
77612;SDS011;66777;52.282;5.960;2023-04-02T06:21:01;10.07;;;4.82;;
77612;SDS011;66777;52.282;5.960;2023-04-02T06:23:44;11.95;;;5.07;;
77612;SDS011;66777;52.282;5.960;2023-04-02T06:26:20;17.30;;;4.75;;
77612;SDS011;66777;52.282;5.960;2023-04-02T06:28:50;8.23;;;4.43;;
77612;SDS011;66777;52.282;5.960;2023-04-02T06:31:42;11.65;;;4.80;;
77612;SDS011;66777;52.282;5.960;2023-04-02T06:34:16;12.43;;;4.88;;
77612;SDS011;66777;52.282;5.960;2023-04-02T06:36:44;11.40;;;4.85;;
77612;SDS011;66777;52.282;5.960;2023-04-02T06:39:16;10.02;;;4.57;;
77612;SDS011;66777;52.282;5.960;2023-04-02T06:41:43;13.20;;;5.53;;
77612;SDS011;66777;52.282;5.960;2023-04-02T06:44:17;9.93;;;5.28;;
77612;SDS011;66777;52.282;5.960;2023-04-02T06:51:53;11.25;;;5.05;;
77612;SDS011;66777;52.282;5.960;2023-04-02T06:54:22;12.15;;;5.30;;
77612;SDS011;66777;52.282;5.960;2023-04-02T06:56:49;9.82;;;4.88;;
77612;SDS011;66777;52.282;5.960;2023-04-02T06:59:17;10.75;;;4.78;;
77612;SDS011;66777;52.282;5.960;2023-04-02T07:04:33;11.98;;;5.00;;
77612;SDS011;66777;52.282;5.960;2023-04-02T07:06:58;9.07;;;4.00;;
77612;SDS011;66777;52.282;5.960;2023-04-02T07:09:25;11.75;;;4.95;;
77612;SDS011;66777;52.282;5.960;2023-04-02T07:11:50;12.07;;;4.53;;
77612;SDS011;66777;52.282;5.960;2023-04-02T07:14:16;10.50;;;4.45;;
77612;SDS011;66777;52.282;5.960;2023-04-02T07:16:42;10.13;;;4.28;;
77612;SDS011;66777;52.282;5.960;2023-04-02T07:19:18;10.23;;;4.45;;
77612;SDS011;66777;52.282;5.960;2023-04-02T07:21:47;8.50;;;4.13;;
77612;SDS011;66777;52.282;5.960;2023-04-02T07:24:13;9.15;;;4.47;;
77612;SDS011;66777;52.282;5.960;2023-04-02T07:26:39;10.00;;;4.85;;
77612;SDS011;66777;52.282;5.960;2023-04-02T07:29:06;10.07;;;4.25;;
77612;SDS011;66777;52.282;5.960;2023-04-02T07:31:33;8.65;;;4.60;;
77612;SDS011;66777;52.282;5.960;2023-04-02T07:34:00;6.43;;;3.67;;
77612;SDS011;66777;52.282;5.960;2023-04-02T07:36:27;8.80;;;4.25;;
77612;SDS011;66777;52.282;5.960;2023-04-02T07:38:54;8.52;;;4.20;;
77612;SDS011;66777;52.282;5.960;2023-04-02T07:41:20;10.32;;;4.63;;
77612;SDS011;66777;52.282;5.960;2023-04-02T07:43:47;8.98;;;4.15;;
77612;SDS011;66777;52.282;5.960;2023-04-02T07:46:13;10.00;;;4.32;;
77612;SDS011;66777;52.282;5.960;2023-04-02T07:48:42;7.35;;;4.13;;
77612;SDS011;66777;52.282;5.960;2023-04-02T07:51:13;8.13;;;4.13;;
77612;SDS011;66777;52.282;5.960;2023-04-02T07:53:47;8.07;;;3.60;;
77612;SDS011;66777;52.282;5.960;2023-04-02T07:56:19;6.88;;;4.20;;
77612;SDS011;66777;52.282;5.960;2023-04-02T07:58:44;7.65;;;3.90;;
77612;SDS011;66777;52.282;5.960;2023-04-02T08:01:18;6.95;;;3.72;;
77612;SDS011;66777;52.282;5.960;2023-04-02T08:03:50;7.25;;;3.53;;
77612;SDS011;66777;52.282;5.960;2023-04-02T08:06:20;8.15;;;3.05;;
77612;SDS011;66777;52.282;5.960;2023-04-02T08:08:48;7.57;;;3.40;;
77612;SDS011;66777;52.282;5.960;2023-04-02T08:11:14;12.23;;;3.30;;
77612;SDS011;66777;52.282;5.960;2023-04-02T08:13:40;7.40;;;2.92;;
77612;SDS011;66777;52.282;5.960;2023-04-02T08:16:07;11.63;;;2.97;;
77612;SDS011;66777;52.282;5.960;2023-04-02T08:18:34;6.32;;;2.58;;
77612;SDS011;66777;52.282;5.960;2023-04-02T08:21:01;13.05;;;2.55;;
77612;SDS011;66777;52.282;5.960;2023-04-02T08:23:32;7.20;;;2.78;;
77612;SDS011;66777;52.282;5.960;2023-04-02T08:26:00;6.75;;;2.70;;
77612;SDS011;66777;52.282;5.960;2023-04-02T08:28:27;7.03;;;3.33;;
77612;SDS011;66777;52.282;5.960;2023-04-02T08:30:54;5.53;;;2.35;;
77612;SDS011;66777;52.282;5.960;2023-04-02T08:33:19;7.43;;;2.83;;
77612;SDS011;66777;52.282;5.960;2023-04-02T08:35:45;6.95;;;2.50;;
77612;SDS011;66777;52.282;5.960;2023-04-02T08:38:13;7.03;;;2.53;;
77612;SDS011;66777;52.282;5.960;2023-04-02T08:40:44;6.50;;;2.28;;
77612;SDS011;66777;52.282;5.960;2023-04-02T08:43:35;6.22;;;2.60;;
77612;SDS011;66777;52.282;5.960;2023-04-02T08:48:56;8.13;;;3.47;;
77612;SDS011;66777;52.282;5.960;2023-04-02T08:51:29;5.95;;;2.60;;
77612;SDS011;66777;52.282;5.960;2023-04-02T08:59:37;8.05;;;4.10;;
77612;SDS011;66777;52.282;5.960;2023-04-02T09:04:52;6.05;;;2.45;;
77612;SDS011;66777;52.282;5.960;2023-04-02T09:07:21;5.45;;;2.45;;
77612;SDS011;66777;52.282;5.960;2023-04-02T09:09:47;6.93;;;2.97;;
77612;SDS011;66777;52.282;5.960;2023-04-02T09:12:16;5.75;;;2.65;;
77612;SDS011;66777;52.282;5.960;2023-04-02T09:17:29;7.15;;;2.42;;
77612;SDS011;66777;52.282;5.960;2023-04-02T09:22:42;5.55;;;2.53;;
77612;SDS011;66777;52.282;5.960;2023-04-02T09:25:16;7.53;;;2.85;;
77612;SDS011;66777;52.282;5.960;2023-04-02T09:27:49;8.57;;;2.55;;
77612;SDS011;66777;52.282;5.960;2023-04-02T09:33:02;7.47;;;3.33;;
77612;SDS011;66777;52.282;5.960;2023-04-02T09:35:34;6.40;;;2.97;;
77612;SDS011;66777;52.282;5.960;2023-04-02T09:38:21;6.32;;;3.13;;
77612;SDS011;66777;52.282;5.960;2023-04-02T09:43:31;6.10;;;3.60;;
77612;SDS011;66777;52.282;5.960;2023-04-02T09:46:00;12.45;;;3.55;;
77612;SDS011;66777;52.282;5.960;2023-04-02T09:48:31;11.35;;;3.35;;
77612;SDS011;66777;52.282;5.960;2023-04-02T09:53:36;9.95;;;4.82;;
77612;SDS011;66777;52.282;5.960;2023-04-02T09:56:11;6.68;;;3.55;;
77612;SDS011;66777;52.282;5.960;2023-04-02T09:59:00;6.55;;;3.15;;
77612;SDS011;66777;52.282;5.960;2023-04-02T10:01:37;5.88;;;3.03;;
77612;SDS011;66777;52.282;5.960;2023-04-02T10:04:05;8.00;;;3.13;;
77612;SDS011;66777;52.282;5.960;2023-04-02T10:06:51;5.97;;;2.70;;
77612;SDS011;66777;52.282;5.960;2023-04-02T10:09:29;5.35;;;2.50;;
77612;SDS011;66777;52.282;5.960;2023-04-02T10:11:56;4.57;;;2.30;;
77612;SDS011;66777;52.282;5.960;2023-04-02T10:14:32;5.65;;;3.05;;
77612;SDS011;66777;52.282;5.960;2023-04-02T10:17:44;6.20;;;2.95;;
77612;SDS011;66777;52.282;5.960;2023-04-02T10:20:00;8.13;;;3.05;;
77612;SDS011;66777;52.282;5.960;2023-04-02T10:22:30;8.35;;;3.17;;
77612;SDS011;66777;52.282;5.960;2023-04-02T10:24:59;6.55;;;3.50;;
77612;SDS011;66777;52.282;5.960;2023-04-02T10:27:29;6.40;;;3.38;;
77612;SDS011;66777;52.282;5.960;2023-04-02T10:30:08;5.72;;;3.15;;
77612;SDS011;66777;52.282;5.960;2023-04-02T10:40:41;6.95;;;3.85;;
77612;SDS011;66777;52.282;5.960;2023-04-02T11:11:17;7.80;;;6.55;;
77612;SDS011;66777;52.282;5.960;2023-04-02T11:16:28;10.10;;;9.10;;
77612;SDS011;66777;52.282;5.960;2023-04-02T11:21:39;9.98;;;9.20;;
77612;SDS011;66777;52.282;5.960;2023-04-02T11:24:22;11.90;;;9.60;;
77612;SDS011;66777;52.282;5.960;2023-04-02T11:27:05;11.82;;;10.93;;
77612;SDS011;66777;52.282;5.960;2023-04-02T11:32:43;12.88;;;11.88;;
77612;SDS011;66777;52.282;5.960;2023-04-02T11:35:24;15.07;;;14.05;;
77612;SDS011;66777;52.282;5.960;2023-04-02T11:38:01;14.77;;;13.65;;
77612;SDS011;66777;52.282;5.960;2023-04-02T11:40:40;15.73;;;14.63;;
77612;SDS011;66777;52.282;5.960;2023-04-02T11:46:31;18.65;;;17.52;;
77612;SDS011;66777;52.282;5.960;2023-04-02T11:49:38;16.38;;;13.35;;
77612;SDS011;66777;52.282;5.960;2023-04-02T11:52:00;19.42;;;18.33;;
77612;SDS011;66777;52.282;5.960;2023-04-02T11:54:27;19.25;;;18.05;;
77612;SDS011;66777;52.282;5.960;2023-04-02T11:56:58;17.77;;;16.55;;
77612;SDS011;66777;52.282;5.960;2023-04-02T11:59:43;20.50;;;19.40;;
77612;SDS011;66777;52.282;5.960;2023-04-02T12:05:08;19.25;;;18.15;;
77612;SDS011;66777;52.282;5.960;2023-04-02T12:10:27;19.40;;;18.27;;
77612;SDS011;66777;52.282;5.960;2023-04-02T12:13:17;20.35;;;19.15;;
77612;SDS011;66777;52.282;5.960;2023-04-02T12:16:03;17.88;;;16.85;;
77612;SDS011;66777;52.282;5.960;2023-04-02T12:18:29;20.25;;;19.15;;
77612;SDS011;66777;52.282;5.960;2023-04-02T12:20:57;22.55;;;21.13;;
77612;SDS011;66777;52.282;5.960;2023-04-02T12:23:25;20.92;;;19.63;;
77612;SDS011;66777;52.282;5.960;2023-04-02T12:25:59;23.33;;;22.15;;
77612;SDS011;66777;52.282;5.960;2023-04-02T12:28:28;25.05;;;23.65;;
77612;SDS011;66777;52.282;5.960;2023-04-02T12:31:10;23.58;;;22.25;;
77612;SDS011;66777;52.282;5.960;2023-04-02T12:33:38;23.65;;;22.35;;
77612;SDS011;66777;52.282;5.960;2023-04-02T12:36:05;22.73;;;21.40;;
77612;SDS011;66777;52.282;5.960;2023-04-02T12:38:43;21.67;;;20.42;;
77612;SDS011;66777;52.282;5.960;2023-04-02T12:46:46;24.25;;;22.88;;
77612;SDS011;66777;52.282;5.960;2023-04-02T12:49:33;24.38;;;23.08;;
77612;SDS011;66777;52.282;5.960;2023-04-02T12:52:10;21.73;;;20.58;;
77612;SDS011;66777;52.282;5.960;2023-04-02T12:59:55;21.98;;;20.83;;
77612;SDS011;66777;52.282;5.960;2023-04-02T13:02:30;25.80;;;24.40;;
77612;SDS011;66777;52.282;5.960;2023-04-02T13:05:08;21.02;;;19.92;;
77612;SDS011;66777;52.282;5.960;2023-04-02T13:07:35;22.67;;;21.45;;
77612;SDS011;66777;52.282;5.960;2023-04-02T13:12:53;26.77;;;25.48;;
77612;SDS011;66777;52.282;5.960;2023-04-02T13:20:39;23.42;;;22.10;;
77612;SDS011;66777;52.282;5.960;2023-04-02T13:25:51;28.48;;;26.98;;
77612;SDS011;66777;52.282;5.960;2023-04-02T13:28:18;26.33;;;25.05;;
77612;SDS011;66777;52.282;5.960;2023-04-02T13:30:45;28.42;;;27.15;;
77612;SDS011;66777;52.282;5.960;2023-04-02T13:33:12;29.17;;;27.83;;
77612;SDS011;66777;52.282;5.960;2023-04-02T13:35:38;29.85;;;28.45;;
77612;SDS011;66777;52.282;5.960;2023-04-02T13:38:05;26.40;;;24.92;;
77612;SDS011;66777;52.282;5.960;2023-04-02T13:40:33;26.58;;;25.10;;
77612;SDS011;66777;52.282;5.960;2023-04-02T13:42:59;26.85;;;25.38;;
77612;SDS011;66777;52.282;5.960;2023-04-02T13:45:27;21.08;;;19.95;;
77612;SDS011;66777;52.282;5.960;2023-04-02T13:48:00;20.30;;;19.15;;
77612;SDS011;66777;52.282;5.960;2023-04-02T13:50:28;21.70;;;20.25;;
77612;SDS011;66777;52.282;5.960;2023-04-02T13:52:59;17.85;;;16.83;;
77612;SDS011;66777;52.282;5.960;2023-04-02T13:55:36;17.55;;;16.55;;
77612;SDS011;66777;52.282;5.960;2023-04-02T13:58:06;15.00;;;14.05;;
77612;SDS011;66777;52.282;5.960;2023-04-02T14:00:34;16.88;;;15.85;;
77612;SDS011;66777;52.282;5.960;2023-04-02T14:03:04;15.77;;;14.85;;
77612;SDS011;66777;52.282;5.960;2023-04-02T14:05:40;15.55;;;14.45;;
77612;SDS011;66777;52.282;5.960;2023-04-02T14:08:39;21.45;;;14.60;;
77612;SDS011;66777;52.282;5.960;2023-04-02T14:11:28;16.77;;;15.32;;
77612;SDS011;66777;52.282;5.960;2023-04-02T14:14:03;14.45;;;13.52;;
77612;SDS011;66777;52.282;5.960;2023-04-02T14:19:43;14.07;;;13.20;;
77612;SDS011;66777;52.282;5.960;2023-04-02T14:22:26;15.85;;;14.75;;
77612;SDS011;66777;52.282;5.960;2023-04-02T14:34:15;15.35;;;14.32;;
77612;SDS011;66777;52.282;5.960;2023-04-02T14:42:04;16.77;;;15.77;;
77612;SDS011;66777;52.282;5.960;2023-04-02T14:45:01;15.95;;;14.95;;
77612;SDS011;66777;52.282;5.960;2023-04-02T14:47:38;15.05;;;14.05;;
77612;SDS011;66777;52.282;5.960;2023-04-02T14:50:10;16.25;;;15.35;;
77612;SDS011;66777;52.282;5.960;2023-04-02T14:52:40;17.85;;;16.88;;
77612;SDS011;66777;52.282;5.960;2023-04-02T14:55:17;18.13;;;17.13;;
77612;SDS011;66777;52.282;5.960;2023-04-02T14:57:51;17.85;;;16.85;;
77612;SDS011;66777;52.282;5.960;2023-04-02T15:00:31;17.70;;;16.80;;
77612;SDS011;66777;52.282;5.960;2023-04-02T15:08:14;17.08;;;16.02;;
77612;SDS011;66777;52.282;5.960;2023-04-02T15:16:10;16.40;;;15.35;;
77612;SDS011;66777;52.282;5.960;2023-04-02T15:18:40;15.45;;;14.43;;
77612;SDS011;66777;52.282;5.960;2023-04-02T15:21:08;14.88;;;13.93;;
77612;SDS011;66777;52.282;5.960;2023-04-02T15:45:46;12.63;;;11.82;;
77612;SDS011;66777;52.282;5.960;2023-04-02T16:05:00;19.38;;;7.15;;
77612;SDS011;66777;52.282;5.960;2023-04-02T16:10:34;7.60;;;6.22;;
77612;SDS011;66777;52.282;5.960;2023-04-02T16:19:01;7.13;;;4.63;;
77612;SDS011;66777;52.282;5.960;2023-04-02T16:21:55;6.22;;;4.75;;
77612;SDS011;66777;52.282;5.960;2023-04-02T16:24:22;6.70;;;4.75;;
77612;SDS011;66777;52.282;5.960;2023-04-02T16:37:38;6.55;;;3.75;;
77612;SDS011;66777;52.282;5.960;2023-04-02T16:48:13;6.13;;;3.60;;
77612;SDS011;66777;52.282;5.960;2023-04-02T16:56:21;5.30;;;3.33;;
77612;SDS011;66777;52.282;5.960;2023-04-02T17:11:59;5.70;;;3.13;;
77612;SDS011;66777;52.282;5.960;2023-04-02T17:14:55;6.13;;;3.47;;
77612;SDS011;66777;52.282;5.960;2023-04-02T17:17:26;4.72;;;2.72;;
77612;SDS011;66777;52.282;5.960;2023-04-02T17:19:55;7.45;;;2.88;;
77612;SDS011;66777;52.282;5.960;2023-04-02T17:22:22;7.47;;;3.20;;
77612;SDS011;66777;52.282;5.960;2023-04-02T17:27:24;4.97;;;2.83;;
77612;SDS011;66777;52.282;5.960;2023-04-02T17:30:00;7.43;;;3.35;;
77612;SDS011;66777;52.282;5.960;2023-04-02T17:32:31;5.40;;;3.10;;
77612;SDS011;66777;52.282;5.960;2023-04-02T17:35:16;7.25;;;3.50;;
77612;SDS011;66777;52.282;5.960;2023-04-02T17:37:49;6.53;;;3.33;;
77612;SDS011;66777;52.282;5.960;2023-04-02T17:48:50;4.95;;;2.78;;
77612;SDS011;66777;52.282;5.960;2023-04-02T17:51:33;5.35;;;2.75;;
77612;SDS011;66777;52.282;5.960;2023-04-02T18:02:23;5.25;;;2.78;;
77612;SDS011;66777;52.282;5.960;2023-04-02T18:07:41;5.90;;;2.38;;
77612;SDS011;66777;52.282;5.960;2023-04-02T18:21:37;4.80;;;2.35;;
77612;SDS011;66777;52.282;5.960;2023-04-02T18:24:24;8.65;;;2.60;;
77612;SDS011;66777;52.282;5.960;2023-04-02T18:32:37;6.07;;;2.40;;
77612;SDS011;66777;52.282;5.960;2023-04-02T18:35:30;7.05;;;2.53;;
77612;SDS011;66777;52.282;5.960;2023-04-02T18:48:51;6.47;;;2.85;;
77612;SDS011;66777;52.282;5.960;2023-04-02T18:51:23;5.88;;;3.03;;
77612;SDS011;66777;52.282;5.960;2023-04-02T18:56:33;7.10;;;2.75;;
77612;SDS011;66777;52.282;5.960;2023-04-02T18:59:11;6.78;;;3.10;;
77612;SDS011;66777;52.282;5.960;2023-04-02T19:02:25;4.78;;;2.17;;
77612;SDS011;66777;52.282;5.960;2023-04-02T19:05:13;5.43;;;2.85;;
77612;SDS011;66777;52.282;5.960;2023-04-02T19:07:45;6.50;;;2.35;;
77612;SDS011;66777;52.282;5.960;2023-04-02T19:10:36;5.13;;;2.13;;
77612;SDS011;66777;52.282;5.960;2023-04-02T19:13:15;5.38;;;2.90;;
77612;SDS011;66777;52.282;5.960;2023-04-02T19:32:14;5.78;;;2.65;;
77612;SDS011;66777;52.282;5.960;2023-04-02T19:34:48;7.60;;;2.65;;
77612;SDS011;66777;52.282;5.960;2023-04-02T19:40:45;7.32;;;2.70;;
77612;SDS011;66777;52.282;5.960;2023-04-02T19:43:17;5.80;;;2.25;;
77612;SDS011;66777;52.282;5.960;2023-04-02T19:45:45;5.78;;;2.72;;
77612;SDS011;66777;52.282;5.960;2023-04-02T19:48:19;4.45;;;1.90;;
77612;SDS011;66777;52.282;5.960;2023-04-02T19:50:48;5.13;;;1.98;;
77612;SDS011;66777;52.282;5.960;2023-04-02T19:53:15;4.75;;;1.67;;
77612;SDS011;66777;52.282;5.960;2023-04-02T19:55:41;6.57;;;2.60;;
77612;SDS011;66777;52.282;5.960;2023-04-02T19:58:27;4.95;;;2.38;;
77612;SDS011;66777;52.282;5.960;2023-04-02T20:00:57;4.90;;;1.98;;
77612;SDS011;66777;52.282;5.960;2023-04-02T20:03:23;4.05;;;1.77;;
77612;SDS011;66777;52.282;5.960;2023-04-02T20:05:49;4.50;;;1.65;;
77612;SDS011;66777;52.282;5.960;2023-04-02T20:08:16;6.13;;;2.42;;
77612;SDS011;66777;52.282;5.960;2023-04-02T20:10:42;3.55;;;1.65;;
77612;SDS011;66777;52.282;5.960;2023-04-02T20:13:08;5.50;;;2.15;;
77612;SDS011;66777;52.282;5.960;2023-04-02T20:15:35;4.40;;;1.83;;
77612;SDS011;66777;52.282;5.960;2023-04-02T20:18:01;8.52;;;2.45;;
77612;SDS011;66777;52.282;5.960;2023-04-02T20:20:28;4.65;;;1.95;;
77612;SDS011;66777;52.282;5.960;2023-04-02T20:22:54;4.80;;;2.13;;
77612;SDS011;66777;52.282;5.960;2023-04-02T20:25:19;5.95;;;2.20;;
77612;SDS011;66777;52.282;5.960;2023-04-02T20:27:45;5.90;;;2.03;;
77612;SDS011;66777;52.282;5.960;2023-04-02T20:30:11;5.93;;;2.28;;
77612;SDS011;66777;52.282;5.960;2023-04-02T20:32:37;8.27;;;2.00;;
77612;SDS011;66777;52.282;5.960;2023-04-02T20:35:04;4.75;;;1.90;;
77612;SDS011;66777;52.282;5.960;2023-04-02T20:37:31;4.65;;;1.80;;
77612;SDS011;66777;52.282;5.960;2023-04-02T20:39:57;4.47;;;1.60;;
77612;SDS011;66777;52.282;5.960;2023-04-02T20:42:23;5.63;;;1.85;;
77612;SDS011;66777;52.282;5.960;2023-04-02T20:44:50;5.13;;;2.30;;
77612;SDS011;66777;52.282;5.960;2023-04-02T20:47:15;6.68;;;2.10;;
77612;SDS011;66777;52.282;5.960;2023-04-02T20:49:41;3.28;;;1.75;;
77612;SDS011;66777;52.282;5.960;2023-04-02T20:52:07;5.60;;;2.15;;
77612;SDS011;66777;52.282;5.960;2023-04-02T20:54:33;5.82;;;2.13;;
77612;SDS011;66777;52.282;5.960;2023-04-02T20:57:00;3.97;;;2.15;;
77612;SDS011;66777;52.282;5.960;2023-04-02T20:59:26;5.60;;;2.15;;
77612;SDS011;66777;52.282;5.960;2023-04-02T21:01:52;5.00;;;1.95;;
77612;SDS011;66777;52.282;5.960;2023-04-02T21:04:17;4.60;;;2.05;;
77612;SDS011;66777;52.282;5.960;2023-04-02T21:06:43;5.43;;;1.85;;
77612;SDS011;66777;52.282;5.960;2023-04-02T21:09:13;4.28;;;1.98;;
77612;SDS011;66777;52.282;5.960;2023-04-02T21:11:41;4.43;;;1.85;;
77612;SDS011;66777;52.282;5.960;2023-04-02T21:14:08;5.25;;;1.73;;
77612;SDS011;66777;52.282;5.960;2023-04-02T21:16:34;3.80;;;1.52;;
77612;SDS011;66777;52.282;5.960;2023-04-02T21:19:02;3.72;;;1.52;;
77612;SDS011;66777;52.282;5.960;2023-04-02T21:21:29;5.97;;;2.05;;
77612;SDS011;66777;52.282;5.960;2023-04-02T21:23:56;4.40;;;1.73;;
77612;SDS011;66777;52.282;5.960;2023-04-02T21:26:24;4.30;;;1.65;;